Time;durP1;ratioP1;P1;durP2;ratioP2;P2;SDS_P1;SDS_P2;PMS_P1;PMS_P2;Temp;Humidity;BMP_temperature;BMP_pressure;BME280_temperature;BME280_humidity;BME280_pressure;Samples;Min_cycle;Max_cycle;Signal;HPM_P1;HPM_P2
2023/09/02 00:02:10;;;;;;;30.42;22.20;;;;;;;15.62;100.00;101736.34;6249478;22;20044;-78
2023/09/02 00:04:36;;;;;;;33.17;22.15;;;;;;;15.58;100.00;101728.47;6222828;22;20335;-77
2023/09/02 00:07:03;;;;;;;36.22;22.85;;;;;;;15.56;100.00;101728.19;6250262;22;20013;-78
2023/09/02 00:09:30;;;;;;;37.08;22.10;;;;;;;15.53;100.00;101725.63;6222595;22;20520;-78
2023/09/02 00:11:56;;;;;;;30.13;22.45;;;;;;;15.50;100.00;101721.91;6222825;22;20017;-78
2023/09/02 00:14:23;;;;;;;32.80;22.83;;;;;;;15.46;100.00;101726.66;6249232;22;20023;-78
2023/09/02 00:16:49;;;;;;;30.45;22.13;;;;;;;15.43;100.00;101729.50;6250251;22;20030;-78
2023/09/02 00:19:16;;;;;;;30.98;22.13;;;;;;;15.40;100.00;101725.03;6249787;22;20208;-77
2023/09/02 00:21:42;;;;;;;35.03;21.35;;;;;;;15.34;100.00;101719.53;6222922;22;20024;-78
2023/09/02 00:24:09;;;;;;;32.67;21.75;;;;;;;15.28;100.00;101719.38;6222774;22;20084;-78
2023/09/02 00:26:35;;;;;;;28.42;19.80;;;;;;;15.26;100.00;101721.75;6249423;22;20008;-77
2023/09/02 00:29:02;;;;;;;32.08;21.83;;;;;;;15.22;100.00;101720.41;6250002;22;20048;-77
2023/09/02 00:31:29;;;;;;;31.20;21.02;;;;;;;15.18;100.00;101717.16;6249887;22;20022;-77
2023/09/02 00:33:56;;;;;;;25.58;21.40;;;;;;;15.12;100.00;101710.91;6223010;22;20099;-77
2023/09/02 00:36:22;;;;;;;28.10;20.95;;;;;;;15.06;100.00;101715.34;6249603;22;20012;-77
2023/09/02 00:38:49;;;;;;;27.77;20.45;;;;;;;15.05;100.00;101717.28;6222637;22;20076;-77
2023/09/02 00:41:26;;;;;;;32.35;20.90;;;;;;;15.02;100.00;101718.94;6196922;22;20541;-77
2023/09/02 00:43:55;;;;;;;31.10;20.70;;;;;;;14.98;100.00;101720.28;6223354;22;20453;-77
2023/09/02 00:46:23;;;;;;;28.13;20.67;;;;;;;14.96;100.00;101720.72;6221830;22;20027;-77
2023/09/02 00:48:50;;;;;;;33.00;20.73;;;;;;;14.93;100.00;101716.25;6249982;22;20019;-77
2023/09/02 00:51:17;;;;;;;30.23;20.63;;;;;;;14.91;100.00;101713.25;6222643;22;20024;-77
2023/09/02 00:53:47;;;;;;;30.58;20.25;;;;;;;14.90;100.00;101714.44;6250105;22;20017;-77
2023/09/02 00:56:14;;;;;;;32.33;19.95;;;;;;;14.86;100.00;101719.22;6221499;22;20017;-77
2023/09/02 00:58:41;;;;;;;28.75;19.40;;;;;;;14.83;100.00;101722.78;6249597;22;20052;-77
2023/09/02 01:01:09;;;;;;;26.20;17.85;;;;;;;14.79;100.00;101716.09;6222832;22;20525;-77
2023/09/02 01:03:38;;;;;;;21.92;16.95;;;;;;;14.74;100.00;101714.75;6222444;22;20044;-77
2023/09/02 01:06:07;;;;;;;23.90;18.25;;;;;;;14.73;100.00;101713.25;6249877;22;20017;-77
2023/09/02 01:08:37;;;;;;;28.23;17.98;;;;;;;14.70;100.00;101719.50;6249016;22;20017;-77
2023/09/02 01:11:04;;;;;;;23.30;16.88;;;;;;;14.68;100.00;101711.16;6222498;22;20474;-77
2023/09/02 01:13:31;;;;;;;24.80;17.08;;;;;;;14.65;100.00;101715.47;6248957;22;20091;-77
2023/09/02 01:15:57;;;;;;;25.42;16.10;;;;;;;14.63;100.00;101720.53;6222938;22;20091;-77
2023/09/02 01:18:25;;;;;;;23.13;16.25;;;;;;;14.61;100.00;101728.25;6222075;22;20021;-77
2023/09/02 01:21:30;;;;;;;20.27;15.85;;;;;;;14.57;100.00;101719.59;6249844;22;20017;-77
2023/09/02 01:24:08;;;;;;;21.92;15.98;;;;;;;14.54;100.00;101715.13;6191981;22;20025;-76
2023/09/02 01:27:21;;;;;;;23.90;16.48;;;;;;;14.52;100.00;101724.81;6249409;22;20008;-76
2023/09/02 01:29:55;;;;;;;37.10;17.23;;;;;;;14.48;100.00;101724.19;6207264;22;20059;-77
2023/09/02 01:32:28;;;;;;;41.90;17.75;;;;;;;14.46;100.00;101730.00;6249195;22;20023;-76
2023/09/02 01:34:57;;;;;;;49.33;17.83;;;;;;;14.43;100.00;101738.91;6249877;22;20040;-76
2023/09/02 01:37:25;;;;;;;26.10;17.20;;;;;;;14.40;100.00;101739.00;6248497;22;20442;-76
2023/09/02 01:39:54;;;;;;;32.20;17.90;;;;;;;14.37;100.00;101745.28;6249253;22;20012;-76
2023/09/02 01:42:21;;;;;;;31.35;17.33;;;;;;;14.35;100.00;101743.03;6248737;22;20458;-76
2023/09/02 01:44:48;;;;;;;68.55;16.80;;;;;;;14.33;100.00;101750.78;6222594;22;20017;-76
2023/09/02 01:47:15;;;;;;;82.45;15.90;;;;;;;14.31;100.00;101745.09;6249386;22;20019;-76
2023/09/02 01:49:46;;;;;;;78.28;14.63;;;;;;;14.27;100.00;101747.91;6249388;22;20056;-77
2023/09/02 01:52:15;;;;;;;82.70;14.85;;;;;;;14.27;100.00;101758.63;6196690;22;20382;-76
2023/09/02 01:54:41;;;;;;;37.05;13.93;;;;;;;14.25;100.00;101757.56;6222317;22;20099;-78
2023/09/02 01:57:10;;;;;;;36.38;13.32;;;;;;;14.24;100.00;101766.78;6249270;22;20405;-76
2023/09/02 01:59:37;;;;;;;58.92;13.18;;;;;;;14.24;100.00;101769.47;6249371;22;20013;-77
2023/09/02 02:02:04;;;;;;;34.80;13.07;;;;;;;14.24;100.00;101780.94;6222614;22;20035;-77
2023/09/02 02:04:34;;;;;;;30.80;13.75;;;;;;;14.25;100.00;101776.31;6249238;22;20016;-76
2023/09/02 02:07:11;;;;;;;35.85;12.98;;;;;;;14.27;100.00;101780.06;6249291;22;20021;-77
2023/09/02 02:09:42;;;;;;;55.00;13.13;;;;;;;14.27;100.00;101769.34;6222085;22;20021;-78
2023/09/02 02:12:10;;;;;;;28.13;11.73;;;;;;;14.29;100.00;101771.59;6249168;22;20087;-77
2023/09/02 02:14:36;;;;;;;86.32;13.15;;;;;;;14.29;100.00;101769.66;6221929;22;20079;-77
2023/09/02 02:17:06;;;;;;;41.72;13.10;;;;;;;14.30;100.00;101778.44;6222913;22;20016;-77
2023/09/02 02:19:33;;;;;;;53.65;13.30;;;;;;;14.28;100.00;101778.88;6221747;22;20020;-77
2023/09/02 02:22:00;;;;;;;66.40;14.65;;;;;;;14.28;100.00;101786.16;6221692;22;20451;-77
2023/09/02 02:24:27;;;;;;;45.55;16.02;;;;;;;14.30;100.00;101783.78;6248852;22;20013;-77
2023/09/02 02:26:54;;;;;;;35.78;15.73;;;;;;;14.30;100.00;101783.78;6250673;22;20013;-77
2023/09/02 02:29:21;;;;;;;31.52;16.85;;;;;;;14.32;100.00;101784.84;6250133;22;20084;-78
2023/09/02 02:31:47;;;;;;;38.88;17.67;;;;;;;14.34;100.00;101779.03;6250935;22;20451;-77
2023/09/02 02:34:14;;;;;;;39.95;17.80;;;;;;;14.35;100.00;101777.88;6222944;22;20403;-77
2023/09/02 02:36:41;;;;;;;28.23;18.00;;;;;;;14.37;100.00;101782.78;6222593;22;20036;-77
2023/09/02 02:39:08;;;;;;;27.70;18.00;;;;;;;14.38;100.00;101786.94;6250212;22;20055;-77
2023/09/02 02:41:35;;;;;;;50.35;18.98;;;;;;;14.39;100.00;101786.50;6250352;22;20017;-77
2023/09/02 02:44:03;;;;;;;29.13;18.23;;;;;;;14.41;100.00;101778.00;6223412;22;20110;-77
2023/09/02 02:46:29;;;;;;;29.80;19.52;;;;;;;14.42;100.00;101782.22;6222966;22;20016;-77
2023/09/02 02:48:56;;;;;;;25.73;18.27;;;;;;;14.43;100.00;101781.03;6223670;22;20016;-78
2023/09/02 02:51:22;;;;;;;28.20;19.13;;;;;;;14.45;100.00;101778.66;6222084;22;20020;-77
2023/09/02 02:53:49;;;;;;;31.58;19.42;;;;;;;14.45;100.00;101782.06;6223357;22;20021;-77
2023/09/02 02:56:16;;;;;;;36.38;20.25;;;;;;;14.47;100.00;101781.63;6223249;22;20051;-77
2023/09/02 02:58:42;;;;;;;28.48;19.35;;;;;;;14.46;100.00;101775.53;6223129;22;20017;-77
2023/09/02 03:01:12;;;;;;;34.55;20.10;;;;;;;14.47;100.00;101781.63;6222692;22;20024;-77
2023/09/02 03:03:43;;;;;;;36.58;20.88;;;;;;;14.48;100.00;101783.88;6222682;22;20083;-77
2023/09/02 03:06:16;;;;;;;33.78;21.40;;;;;;;14.49;100.00;101780.00;6222362;22;20336;-77
2023/09/02 03:08:42;;;;;;;34.35;20.90;;;;;;;14.52;100.00;101781.06;6250208;22;20020;-77
2023/09/02 03:11:09;;;;;;;35.95;21.60;;;;;;;14.52;100.00;101773.03;6223072;22;20108;-77
2023/09/02 03:13:37;;;;;;;41.42;20.38;;;;;;;14.54;100.00;101781.38;6250275;22;20020;-77
2023/09/02 03:16:10;;;;;;;59.78;21.38;;;;;;;14.54;100.00;101776.75;6223187;22;20013;-77
2023/09/02 03:18:37;;;;;;;57.75;19.17;;;;;;;14.54;100.00;101782.13;6197900;22;20019;-77
2023/09/02 03:21:07;;;;;;;32.03;19.15;;;;;;;14.53;100.00;101787.91;6223168;22;20024;-77
2023/09/02 03:23:35;;;;;;;44.58;19.85;;;;;;;14.53;100.00;101783.31;6222960;22;20450;-77
2023/09/02 03:26:10;;;;;;;37.83;18.58;;;;;;;14.54;100.00;101786.72;6223225;22;20020;-77
2023/09/02 03:28:38;;;;;;;31.85;19.17;;;;;;;14.57;100.00;101788.53;6222810;22;20395;-77
2023/09/02 03:31:06;;;;;;;32.85;19.27;;;;;;;14.57;100.00;101789.28;6223301;22;20052;-78
2023/09/02 03:33:34;;;;;;;39.97;19.02;;;;;;;14.58;100.00;101780.06;6222093;22;20024;-77
2023/09/02 03:36:01;;;;;;;62.05;19.55;;;;;;;14.60;100.00;101787.66;6250414;22;20063;-78
2023/09/02 03:38:27;;;;;;;32.25;21.02;;;;;;;14.61;100.00;101779.16;6249552;22;20047;-77
2023/09/02 03:40:55;;;;;;;42.25;20.23;;;;;;;14.62;100.00;101780.66;6222726;22;20024;-77
2023/09/02 03:43:22;;;;;;;44.95;20.58;;;;;;;14.65;100.00;101784.41;6223096;22;20055;-77
2023/09/02 03:45:50;;;;;;;34.72;21.20;;;;;;;14.66;100.00;101785.88;6223409;22;20099;-77
2023/09/02 03:48:19;;;;;;;44.50;20.55;;;;;;;14.66;100.00;101788.56;6221853;22;20016;-77
2023/09/02 03:51:01;;;;;;;28.67;20.50;;;;;;;14.67;100.00;101792.75;6223517;22;20016;-77
2023/09/02 03:53:30;;;;;;;66.15;19.95;;;;;;;14.68;100.00;101797.66;6222403;22;20073;-77
2023/09/02 03:55:58;;;;;;;38.72;20.23;;;;;;;14.68;100.00;101802.28;6198474;22;20545;-77
2023/09/02 03:58:28;;;;;;;73.95;21.55;;;;;;;14.69;100.00;101801.09;6222739;22;20055;-77
2023/09/02 04:00:55;;;;;;;45.22;20.42;;;;;;;14.71;100.00;101798.72;6223179;22;20047;-77
2023/09/02 04:03:23;;;;;;;40.08;22.25;;;;;;;14.71;100.00;101804.06;6249198;22;20016;-77
2023/09/02 04:05:50;;;;;;;34.63;20.98;;;;;;;14.73;100.00;101804.38;6198196;22;20048;-77
2023/09/02 04:08:27;;;;;;;62.53;22.48;;;;;;;14.74;100.00;101803.19;6222940;22;20442;-77
2023/09/02 04:10:55;;;;;;;69.07;21.67;;;;;;;14.75;100.00;101796.63;6250773;22;20040;-77
2023/09/02 04:13:24;;;;;;;78.80;21.92;;;;;;;14.75;100.00;101802.00;6222682;22;20451;-77
2023/09/02 04:15:57;;;;;;;53.50;22.08;;;;;;;14.76;100.00;101808.09;6223258;22;20017;-77
2023/09/02 04:18:25;;;;;;;45.55;20.48;;;;;;;14.77;100.00;101801.56;6222101;22;20367;-77
2023/09/02 04:20:52;;;;;;;49.80;19.48;;;;;;;14.77;100.00;101810.34;6250156;22;20017;-76
2023/09/02 04:23:21;;;;;;;67.00;19.25;;;;;;;14.78;100.00;101800.38;6222286;22;20024;-77
2023/09/02 04:25:52;;;;;;;63.90;19.50;;;;;;;14.79;100.00;101804.53;6222891;22;20020;-77
2023/09/02 04:28:20;;;;;;;97.07;18.80;;;;;;;14.78;100.00;101822.56;6222490;22;20017;-79
2023/09/02 04:30:48;;;;;;;63.35;16.75;;;;;;;14.77;100.00;101820.31;6223425;22;20044;-78
2023/09/02 04:33:16;;;;;;;38.67;18.02;;;;;;;14.76;100.00;101824.94;6221993;22;20027;-78
2023/09/02 04:35:47;;;;;;;28.23;16.90;;;;;;;14.75;100.00;101820.75;6222916;22;20017;-78
2023/09/02 04:38:15;;;;;;;58.72;17.75;;;;;;;14.76;100.00;101830.28;6222924;22;20023;-78
2023/09/02 04:40:45;;;;;;;85.25;17.50;;;;;;;14.75;100.00;101834.16;6223035;22;20112;-78
2023/09/02 04:43:13;;;;;;;51.40;15.90;;;;;;;14.74;100.00;101835.34;6222822;22;20099;-78
2023/09/02 04:45:42;;;;;;;44.75;15.55;;;;;;;14.75;100.00;101844.13;6222725;22;20075;-78
2023/09/02 04:48:11;;;;;;;45.67;16.30;;;;;;;14.74;100.00;101843.38;6221678;22;20020;-78
2023/09/02 04:50:39;;;;;;;34.45;15.77;;;;;;;14.76;100.00;101849.06;6222662;22;20021;-78
2023/09/02 04:53:07;;;;;;;34.92;16.42;;;;;;;14.78;100.00;101852.03;6222691;22;20017;-78
2023/09/02 04:55:41;;;;;;;36.50;16.17;;;;;;;14.78;100.00;101860.09;6222904;22;20023;-78
2023/09/02 04:58:15;;;;;;;39.45;15.63;;;;;;;14.78;100.00;101857.41;6222756;22;20023;-78
2023/09/02 05:00:42;;;;;;;74.13;15.10;;;;;;;14.77;100.00;101861.28;6222079;22;20028;-78
2023/09/02 05:03:09;;;;;;;43.28;15.35;;;;;;;14.78;100.00;101859.34;6222551;22;20020;-78
2023/09/02 05:05:36;;;;;;;26.85;14.95;;;;;;;14.79;100.00;101861.56;6197503;22;20525;-78
2023/09/02 05:08:05;;;;;;;42.78;15.40;;;;;;;14.78;100.00;101860.09;6222499;22;20084;-78
2023/09/02 05:10:32;;;;;;;50.83;15.82;;;;;;;14.80;100.00;101864.97;6222504;22;20059;-78
2023/09/02 05:12:59;;;;;;;39.53;15.35;;;;;;;14.81;100.00;101871.84;6223185;22;20019;-78
2023/09/02 05:15:28;;;;;;;51.83;16.98;;;;;;;14.82;100.00;101876.00;6221844;22;20020;-78
2023/09/02 05:17:57;;;;;;;61.55;16.60;;;;;;;14.81;100.00;101864.53;6223033;22;20455;-78
2023/09/02 05:20:25;;;;;;;53.72;16.10;;;;;;;14.80;100.00;101876.44;6222308;22;20131;-78
2023/09/02 05:22:52;;;;;;;47.13;16.20;;;;;;;14.80;100.00;101875.69;6197624;22;20020;-78
2023/09/02 05:25:20;;;;;;;74.78;16.33;;;;;;;14.77;100.00;101874.69;6221994;22;20028;-78
2023/09/02 05:27:48;;;;;;;54.25;17.08;;;;;;;14.78;100.00;101886.88;6222962;22;20550;-78
2023/09/02 05:30:14;;;;;;;57.75;15.95;;;;;;;14.78;100.00;101886.88;6221978;22;20107;-76
2023/09/02 05:32:41;;;;;;;27.38;16.90;;;;;;;14.76;100.00;101881.22;6249859;22;20016;-76
2023/09/02 05:35:08;;;;;;;67.88;16.27;;;;;;;14.77;100.00;101892.69;6222389;22;20399;-77
2023/09/02 05:37:34;;;;;;;47.58;16.77;;;;;;;14.78;100.00;101892.25;6249441;22;20401;-77
2023/09/02 05:40:02;;;;;;;27.98;16.40;;;;;;;14.82;100.00;101902.81;6249547;22;20458;-77
2023/09/02 05:42:29;;;;;;;58.38;16.25;;;;;;;14.82;100.00;101892.84;6221831;22;20016;-77
2023/09/02 05:44:55;;;;;;;38.90;16.45;;;;;;;14.84;100.00;101898.50;6249311;22;20012;-77
2023/09/02 05:47:22;;;;;;;34.00;15.98;;;;;;;14.86;100.00;101900.75;6249187;22;20012;-76
2023/09/02 05:49:48;;;;;;;53.63;16.95;;;;;;;14.89;100.00;101900.63;6223267;22;20096;-75
2023/09/02 05:52:15;;;;;;;58.40;18.50;;;;;;;14.91;100.00;101908.97;6249727;22;20087;-77
2023/09/02 05:54:41;;;;;;;71.03;16.13;;;;;;;14.90;100.00;101904.78;6249484;22;20024;-76
2023/09/02 05:57:08;;;;;;;52.92;15.68;;;;;;;14.93;100.00;101911.22;6249572;22;20020;-78
2023/09/02 05:59:35;;;;;;;64.55;17.00;;;;;;;14.94;100.00;101905.41;6248360;22;20517;-75
2023/09/02 06:02:01;;;;;;;42.58;16.63;;;;;;;14.97;100.00;101899.16;6249605;22;20462;-76
2023/09/02 06:04:28;;;;;;;34.10;15.32;;;;;;;15.00;100.00;101900.97;6248827;22;20024;-76
2023/09/02 06:06:54;;;;;;;106.38;15.32;;;;;;;15.03;100.00;101902.00;6249677;22;20087;-75
2023/09/02 06:09:26;;;;;;;59.65;15.57;;;;;;;15.02;100.00;101906.63;6221605;22;20300;-75
2023/09/02 06:11:53;;;;;;;45.63;15.00;;;;;;;15.02;100.00;101893.22;6222554;22;20016;-75
2023/09/02 06:14:19;;;;;;;83.75;15.57;;;;;;;15.04;100.00;101900.09;6221592;22;20013;-75
2023/09/02 06:16:46;;;;;;;115.70;15.32;;;;;;;15.04;100.00;101900.09;6249958;22;20068;-76
2023/09/02 06:19:13;;;;;;;48.33;15.18;;;;;;;15.07;100.00;101908.00;6222115;22;20025;-75
2023/09/02 06:21:39;;;;;;;18.15;14.00;;;;;;;15.10;100.00;101901.75;6249381;22;20013;-75
2023/09/02 06:24:06;;;;;;;51.75;14.40;;;;;;;15.16;100.00;101904.59;6249157;22;20183;-75
2023/09/02 06:26:32;;;;;;;62.17;11.02;;;;;;;15.19;100.00;101909.06;6249085;22;20446;-76
2023/09/02 06:28:59;;;;;;;37.25;11.35;;;;;;;15.19;100.00;101920.56;6248942;22;20451;-75
2023/09/02 06:31:26;;;;;;;29.25;10.90;;;;;;;15.23;100.00;101923.06;6221811;22;20024;-78
2023/09/02 06:33:52;;;;;;;37.90;10.95;;;;;;;15.25;100.00;101931.44;6249582;22;20031;-77
2023/09/02 06:36:21;;;;;;;29.15;12.07;;;;;;;15.29;100.00;101945.44;6249134;22;20009;-78
2023/09/02 06:38:48;;;;;;;30.95;12.05;;;;;;;15.29;100.00;101948.13;6249048;22;20497;-78
2023/09/02 06:41:15;;;;;;;28.98;12.10;;;;;;;15.30;100.00;101950.38;6248975;22;20020;-79
2023/09/02 06:43:42;;;;;;;19.02;11.30;;;;;;;15.35;100.00;101957.09;6221879;22;20021;-78
2023/09/02 06:46:19;;;;;;;43.83;12.65;;;;;;;15.36;100.00;101961.28;6248958;22;20028;-78
2023/09/02 06:48:46;;;;;;;29.30;12.13;;;;;;;15.38;100.00;101969.63;6249389;22;20021;-77
2023/09/02 06:51:14;;;;;;;15.15;11.82;;;;;;;15.39;100.00;101976.50;6249623;22;20521;-77
2023/09/02 06:53:41;;;;;;;35.15;12.98;;;;;;;15.41;100.00;101974.09;6249013;22;20016;-76
2023/09/02 06:56:11;;;;;;;29.52;12.82;;;;;;;15.44;100.00;101983.22;6248894;22;20012;-77
2023/09/02 06:58:40;;;;;;;35.88;14.35;;;;;;;15.50;100.00;101984.13;6221239;22;20091;-78
2023/09/02 07:01:14;;;;;;;42.60;14.13;;;;;;;15.54;100.00;101985.50;6222119;22;20012;-77
2023/09/02 07:03:40;;;;;;;25.52;13.20;;;;;;;15.59;100.00;101992.97;6249090;22;20447;-78
2023/09/02 07:06:08;;;;;;;37.70;12.48;;;;;;;15.62;100.00;101997.44;6248760;22;20013;-78
2023/09/02 07:08:35;;;;;;;36.20;12.55;;;;;;;15.64;100.00;101997.75;6248770;22;20470;-78
2023/09/02 07:11:02;;;;;;;21.95;11.98;;;;;;;15.65;100.00;101999.25;6248627;22;20013;-79
2023/09/02 07:13:28;;;;;;;27.10;12.07;;;;;;;15.67;100.00;102004.16;6249585;22;20434;-79
2023/09/02 07:15:59;;;;;;;28.33;12.25;;;;;;;15.68;100.00;101998.34;6250316;22;20104;-79
2023/09/02 07:18:26;;;;;;;18.48;11.77;;;;;;;15.73;100.00;102001.66;6249952;22;20690;-79
2023/09/02 07:21:00;;;;;;;23.52;11.70;;;;;;;15.72;100.00;102003.59;6250284;22;20103;-79
2023/09/02 07:23:28;;;;;;;19.63;11.18;;;;;;;15.72;100.00;102010.88;6249648;22;20330;-79
2023/09/02 07:25:57;;;;;;;18.45;12.43;;;;;;;15.80;100.00;102015.53;6249288;22;20016;-79
2023/09/02 07:28:23;;;;;;;22.48;11.55;;;;;;;15.91;100.00;102020.47;6249480;22;20459;-79
2023/09/02 07:30:50;;;;;;;20.08;12.75;;;;;;;15.98;100.00;102020.19;6250538;22;20057;-79
2023/09/02 07:33:16;;;;;;;25.67;12.25;;;;;;;16.08;100.00;102029.75;6222657;22;20017;-78
2023/09/02 07:35:44;;;;;;;17.80;12.10;;;;;;;16.11;100.00;102033.47;6249885;22;20013;-80
2023/09/02 07:38:10;;;;;;;14.90;12.00;;;;;;;16.11;100.00;102028.84;6249802;22;20481;-79
2023/09/02 07:40:37;;;;;;;16.23;13.23;;;;;;;16.12;100.00;102034.97;6221807;22;20052;-80
2023/09/02 07:43:03;;;;;;;16.75;12.98;;;;;;;16.15;100.00;102042.88;6250492;22;20084;-80
2023/09/02 07:45:30;;;;;;;16.77;12.35;;;;;;;16.16;100.00;102049.00;6249444;22;20017;-81
2023/09/02 07:47:57;;;;;;;19.67;13.02;;;;;;;16.18;100.00;102044.69;6250625;22;20040;-80
2023/09/02 07:50:23;;;;;;;17.17;13.57;;;;;;;16.26;100.00;102045.13;6249559;22;20075;-80
2023/09/02 07:52:50;;;;;;;17.30;13.48;;;;;;;16.33;100.00;102048.28;6250357;22;20032;-82
2023/09/02 07:55:16;;;;;;;17.17;13.43;;;;;;;16.42;100.00;102052.16;6249132;22;20016;-81
2023/09/02 07:57:44;;;;;;;18.23;12.57;;;;;;;16.41;100.00;102051.41;6250112;22;20012;-79
2023/09/02 08:00:11;;;;;;;19.60;13.32;;;;;;;16.45;100.00;102059.31;6249697;22;20038;-81
2023/09/02 08:02:38;;;;;;;21.77;14.02;;;;;;;16.50;100.00;102056.78;6223026;22;20408;-78
2023/09/02 08:05:06;;;;;;;19.88;13.85;;;;;;;16.54;100.00;102065.44;6250180;22;20410;-82
2023/09/02 08:07:33;;;;;;;21.58;14.13;;;;;;;16.54;100.00;102072.75;6223375;22;20514;-82
2023/09/02 08:09:59;;;;;;;20.63;14.43;;;;;;;16.57;100.00;102074.56;6249923;22;20406;-82
2023/09/02 08:12:26;;;;;;;23.88;14.50;;;;;;;16.58;100.00;102076.03;6247790;22;20846;-82
2023/09/02 08:14:52;;;;;;;26.60;15.70;;;;;;;16.59;100.00;102080.97;6249171;22;20013;-81
2023/09/02 08:17:19;;;;;;;17.70;14.13;;;;;;;16.68;100.00;102074.88;6248773;22;20023;-82
2023/09/02 08:19:46;;;;;;;18.85;14.30;;;;;;;16.80;100.00;102076.63;6249952;22;20442;-82
2023/09/02 08:22:13;;;;;;;20.50;14.38;;;;;;;16.86;100.00;102082.91;6222185;22;20024;-82
2023/09/02 08:24:40;;;;;;;18.63;14.43;;;;;;;16.88;100.00;102077.81;6221406;22;20021;-83
2023/09/02 08:27:09;;;;;;;18.15;13.82;;;;;;;16.90;100.00;102075.44;6249175;22;20040;-83
2023/09/02 08:29:35;;;;;;;19.40;14.35;;;;;;;16.95;100.00;102080.22;6249681;22;20013;-78
2023/09/02 08:32:02;;;;;;;18.63;14.68;;;;;;;17.01;100.00;102085.72;6249751;22;20461;-79
2023/09/02 08:34:29;;;;;;;18.45;14.55;;;;;;;17.05;100.00;102088.28;6249031;22;20013;-79
2023/09/02 08:36:55;;;;;;;22.58;15.20;;;;;;;17.04;100.00;102079.44;6249603;22;20078;-79
2023/09/02 08:39:22;;;;;;;20.38;14.82;;;;;;;17.09;100.00;102078.09;6248193;22;20815;-79
2023/09/02 08:41:49;;;;;;;22.73;15.52;;;;;;;17.12;100.00;102083.31;6249915;22;20084;-79
2023/09/02 08:44:17;;;;;;;18.50;14.38;;;;;;;17.16;100.00;102088.56;6249193;22;20422;-79
2023/09/02 08:46:46;;;;;;;22.23;15.18;;;;;;;17.20;100.00;102083.72;6249933;22;20047;-81
2023/09/02 08:49:16;;;;;;;20.25;15.23;;;;;;;17.20;100.00;102072.97;6249273;22;20012;-79
2023/09/02 08:51:44;;;;;;;17.65;14.68;;;;;;;17.21;100.00;102061.00;6222663;22;20446;-79
2023/09/02 08:54:12;;;;;;;22.77;15.63;;;;;;;17.27;100.00;102062.63;6248516;22;20023;-79
2023/09/02 08:56:41;;;;;;;23.80;15.45;;;;;;;17.33;100.00;102063.50;6222742;22;20024;-79
2023/09/02 08:59:09;;;;;;;19.85;14.88;;;;;;;17.37;100.00;102074.13;6249207;22;20485;-78
2023/09/02 09:01:43;;;;;;;19.48;14.73;;;;;;;17.40;100.00;102083.22;6197059;22;20468;-79
2023/09/02 09:04:13;;;;;;;20.33;14.50;;;;;;;17.45;100.00;102091.44;6248964;22;20437;-79
2023/09/02 09:06:40;;;;;;;26.35;15.57;;;;;;;17.45;100.00;102093.38;6248789;22;20235;-79
2023/09/02 09:09:11;;;;;;;23.42;15.15;;;;;;;17.48;100.00;102100.56;6248464;22;20016;-79
2023/09/02 09:11:47;;;;;;;19.88;15.60;;;;;;;17.47;100.00;102110.59;6222469;22;20017;-79
2023/09/02 09:14:19;;;;;;;21.98;15.73;;;;;;;17.49;100.00;102107.44;6196948;22;20020;-79
2023/09/02 09:16:52;;;;;;;20.88;16.27;;;;;;;17.53;100.00;102108.75;6249577;22;20469;-79
2023/09/02 09:19:25;;;;;;;24.08;16.45;;;;;;;17.57;100.00;102120.13;6248851;22;20072;-79
2023/09/02 09:21:52;;;;;;;24.58;15.73;;;;;;;17.63;100.00;102115.59;6249072;22;20016;-79
2023/09/02 09:24:18;;;;;;;21.83;15.88;;;;;;;17.69;100.00;102118.44;6248390;22;20083;-79
2023/09/02 09:26:45;;;;;;;21.75;15.73;;;;;;;17.77;100.00;102118.84;6249356;22;20020;-79
2023/09/02 09:29:17;;;;;;;24.55;16.55;;;;;;;17.79;100.00;102116.44;6222033;22;20142;-78
2023/09/02 09:31:44;;;;;;;;;;;;;;;17.81;100.00;102119.44;6250167;22;20023;-79
2023/09/02 09:34:11;;;;;;;19.50;15.18;;;;;;;17.84;100.00;102129.31;6248958;22;20046;-79
2023/09/02 09:36:37;;;;;;;19.48;15.20;;;;;;;17.90;100.00;102132.88;6248577;22;20088;-79
2023/09/02 09:39:08;;;;;;;24.63;15.57;;;;;;;17.96;100.00;102129.09;6248594;22;20013;-75
2023/09/02 09:41:35;;;;;;;23.10;16.25;;;;;;;18.00;100.00;102148.50;6248736;22;20035;-77
2023/09/02 09:44:11;;;;;;;23.10;16.90;;;;;;;18.06;100.00;102153.28;6249223;22;20023;-78
2023/09/02 09:46:44;;;;;;;23.10;16.40;;;;;;;18.07;100.00;102160.91;6248823;22;20024;-77
2023/09/02 09:49:31;;;;;;;22.23;16.25;;;;;;;18.13;100.00;102161.03;6248493;22;20394;-77
2023/09/02 09:52:00;;;;;;;23.48;17.13;;;;;;;18.15;100.00;102178.22;6248687;22;20023;-77
2023/09/02 09:54:37;;;;;;;26.65;17.80;;;;;;;18.21;100.00;102178.34;6248203;22;20512;-77
2023/09/02 09:57:13;;;;;;;25.02;17.55;;;;;;;18.21;100.00;102167.56;6248867;22;20073;-79
2023/09/02 09:59:52;;;;;;;26.85;18.35;;;;;;;18.20;100.00;102174.91;6248968;22;20083;-81
2023/09/02 10:02:23;;;;;;;22.75;17.10;;;;;;;18.20;100.00;102188.38;6248411;22;20098;-84
2023/09/02 10:04:52;;;;;;;25.47;18.70;;;;;;;18.30;100.00;102183.69;6252229;22;20044;-87
2023/09/02 10:07:22;;;;;;;25.15;17.48;;;;;;;18.33;100.00;102188.19;6222028;22;20670;-77
2023/09/02 10:09:48;;;;;;;27.75;19.35;;;;;;;18.37;100.00;102190.72;6249825;22;20017;-77
2023/09/02 10:12:16;;;;;;;27.98;18.90;;;;;;;18.39;100.00;102186.34;6248750;22;20017;-77
2023/09/02 10:14:45;;;;;;;28.70;19.27;;;;;;;18.43;100.00;102192.28;6248568;22;20052;-77
2023/09/02 10:17:12;;;;;;;23.80;17.15;;;;;;;18.46;100.00;102196.75;6223392;22;20485;-79
2023/09/02 10:19:40;;;;;;;24.30;17.85;;;;;;;18.49;100.00;102197.81;6248323;22;20017;-79
2023/09/02 10:22:07;;;;;;;24.25;18.15;;;;;;;18.53;100.00;102201.81;6249363;22;20012;-79
2023/09/02 10:24:40;;;;;;;26.67;19.60;;;;;;;18.61;100.00;102202.25;6248657;22;20024;-78
2023/09/02 10:27:16;;;;;;;27.98;18.63;;;;;;;18.66;100.00;102204.31;6248855;22;20017;-79
2023/09/02 10:29:43;;;;;;;23.98;18.08;;;;;;;18.72;100.00;102209.81;6248922;22;20017;-78
2023/09/02 10:32:12;;;;;;;24.10;17.45;;;;;;;18.74;100.00;102213.56;6248801;22;20730;-79
2023/09/02 10:34:58;;;;;;;25.45;17.77;;;;;;;18.76;100.00;102213.09;6220850;22;20012;-79
2023/09/02 10:37:29;;;;;;;21.90;17.17;;;;;;;18.77;100.00;102215.34;6248110;22;20048;-79
2023/09/02 10:40:04;;;;;;;23.02;16.73;;;;;;;18.83;100.00;102210.75;6249165;22;20016;-81
2023/09/02 10:42:31;;;;;;;22.70;17.83;;;;;;;18.94;100.00;102212.94;6221410;22;20017;-78
2023/09/02 10:44:59;;;;;;;20.05;16.10;;;;;;;19.10;100.00;102215.22;6248787;22;20429;-79
2023/09/02 10:47:25;;;;;;;17.88;15.93;;;;;;;19.15;100.00;102216.53;6248746;22;20083;-80
2023/09/02 10:49:54;;;;;;;23.20;16.20;;;;;;;19.21;99.19;102220.03;6221166;22;20021;-79
2023/09/02 10:52:21;;;;;;;19.08;15.45;;;;;;;19.26;99.21;102220.16;6247177;22;20092;-80
2023/09/02 10:55:10;;;;;;;20.38;16.40;;;;;;;19.32;99.77;102225.66;6249753;22;20047;-80
2023/09/02 10:57:49;;;;;;;22.58;16.48;;;;;;;19.29;98.60;102221.19;6249715;22;20028;-80
2023/09/02 11:00:19;;;;;;;20.52;16.00;;;;;;;19.30;98.53;102223.41;6250088;22;20043;-79
2023/09/02 11:02:48;;;;;;;19.02;15.13;;;;;;;19.41;98.47;102220.16;6249907;22;20016;-79
2023/09/02 11:05:15;;;;;;;19.42;15.75;;;;;;;19.51;97.61;102218.91;6248464;22;20082;-80
2023/09/02 11:07:44;;;;;;;21.60;16.80;;;;;;;19.62;97.25;102212.91;6248681;22;20024;-80
2023/09/02 11:10:11;;;;;;;19.02;16.67;;;;;;;19.71;96.53;102209.38;6221486;22;20013;-80